Relevés horaires Chievres (Belgique)


Relevés horaires à Chievres - Mardi 13 Juin 2017
Heure UTC1 Température [°C] Vent [km/h] Hum. [%] Pres.4 [hPa] Visi. [Km] Nébu. [octa] Préc.5 [mm] Cond.
2m. Res. Ros. Dir.2 Vit. Moy. Raf.3
23:00 13.4 13.4 9.3 NNO 1.9 -- 3.7 76 1020.2(0.4/3h) 19 -- -- --
22:00 14.2 14.2 9.9 NNO 1.9 -- 5.6 75 1020.2(0.6/3h) 19 -- -- --
21:00 15.1 15.1 10.6 NE 3.7 -- 9.3 74 1020.2(0.8/3h) 20 -- -- --
20:00 16.7 16.7 11.3 NE 3.7 -- 9.3 70 1019.7(0.2/3h) 19 -- -- --
19:00 19.2 19.2 11.1 NE 3.7 -- 9.3 59 1019.3(-0.3/3h) 18 -- -- --
18:00 20.4 20.4 11.1 ENE 5.6 -- 7.4 55 1019.2(-0.7/3h) 19 -- -- --
17:00 21.3 21.3 10.6 NNE 3.7 -- 7.4 50 1019.2(-0.8/3h) 20 -- -- --
16:00 20.8 20.8 11.2 NE 3.7 -- 7.4 54 1019.7(-0.4/3h) 16 -- -- --
15:00 21.4 21.4 9.4 NNO 1.9 -- 7.4 46 1019.8(-0.5/3h) 20 -- -- --
14:00 21.3 21.3 10.9 NNE 3.7 -- 7.4 51 1020.2(-0.2/3h) 13 -- -- --
13:00 20.4 20.4 10.3 NNO 1.9 -- 7.4 52 1020.2(-0.2/3h) 11 -- -- --
12:00 19.7 19.7 10.9 NO 3.7 -- 7.4 57 1020.3(0.0/3h) 17 -- -- --
11:00 20.3 20.3 11.3 O 3.7 -- 7.4 56 1020.3(0.1/3h) 19 -- -- --
10:00 18.1 18.1 10.2 NNO 1.9 -- 7.4 60 1020.5(-0.2/3h) 17 -- -- --
09:00 18.5 18.5 10.8 NNO 1.9 -- 5.6 61 1020.3(-0.1/3h) 11 -- -- --
08:00 17.3 17.3 12.2 NNO 1.9 -- 3.7 72 1020.6(0.0/3h) 10 -- -- --
07:00 14.2 14.2 11.1 NNO 1.9 -- 3.7 82 1020.7(0.6/3h) 9 -- -- --
06:00 12.6 12.6 10.1 SO 3.7 -- 5.6 85 1020.7(0.6/3h) 11 -- -- --
05:00 10.4 10.4 8.9 NNO 1.9 -- 3.7 90 1020.7(0.5/3h) 9 -- -- --
04:00 8.1 8.1 7.1 NNO 3.7 -- 3.7 93 1020.3(-0.3/3h) 7 -- -- --
03:00 8.4 8.4 7.1 SSO 3.7 -- 5.6 92 1020.2(-0.4/3h) 9 -- -- --
02:00 8.8 8.8 7.4 SSO 3.7 -- 5.6 91 1020.2(-0.5/3h) 9 -- -- --
01:00 8.8 8.8 7.3 SSO 3.7 -- 5.6 90 1020.6(0.0/3h) 10 -- -- --
00:00 9.6 9.6 7.7 SSO 3.7 -- 13.0 88 1020.7(0.1/3h) 11 -- -- --

1 Coordinated Universal Time. Actuellement il est 16:00 locale et 14:00 UTC.

2 Le vent souffle depuis la direction indiquée vers la direction oposée.

3 Les rafales max. sont disponible 40 min après l'heure du relevé.

4 Pour les stations d'altitude (plus de 600m) le géopotentiel du niveau le plus proche de la pression obligatoire est indiqué.

5 Les stations disposant d'un diffuseur peuvent indiquer "trace". Cela signifie que des précipitations ont touchés le sol mais que la quantité est inférieure à 0.1 mm.

Récapitulatif de la journée
Température [°C] Vent [km/h] Ensoleillement4 [h] Precipitations totale5 [mm] Pression [Hpa]
Min1 Max.2 Moy.3 Max. Min Max.
8.0 22.2 0 13.0 0 h 0 min 0 1019.2 1020.7

1 Température minimale relevée entre 18:00 UTC la veille et 18:00 UTC le jour donné.

2 Température maximale relevée entre 06:00 UTC le jour donné et 06:00 UTC le lendemain.

3 Vent moyen de la journée basé sur les relevés horaires.

4 Ensoleillement en heures relevé entre 06:00 UTC la veille et 06:00 UTC le jour donné.

5 Précipitations totales tombées entre 06:00 UTC la jour donné et 06:00 UTC le lendemain.

Graphiques horaires